sensor_id;sensor_type;location;lat;lon;timestamp;temperature;humidity
67358;HTU21D;54240;51.096;5.878;2022-10-16T00:01:52;14.51;118.99
67358;HTU21D;54240;51.096;5.878;2022-10-16T00:04:17;14.55;118.99
67358;HTU21D;54240;51.096;5.878;2022-10-16T00:06:43;14.54;118.99
67358;HTU21D;54240;51.096;5.878;2022-10-16T00:09:09;14.56;118.99
67358;HTU21D;54240;51.096;5.878;2022-10-16T00:11:37;14.54;118.99
67358;HTU21D;54240;51.096;5.878;2022-10-16T00:14:08;14.53;118.99
67358;HTU21D;54240;51.096;5.878;2022-10-16T00:16:34;14.54;118.99
67358;HTU21D;54240;51.096;5.878;2022-10-16T00:19:00;14.55;118.99
67358;HTU21D;54240;51.096;5.878;2022-10-16T00:21:28;14.54;118.99
67358;HTU21D;54240;51.096;5.878;2022-10-16T00:24:13;14.53;118.99
67358;HTU21D;54240;51.096;5.878;2022-10-16T00:26:39;14.50;118.99
67358;HTU21D;54240;51.096;5.878;2022-10-16T00:29:06;14.47;118.99
67358;HTU21D;54240;51.096;5.878;2022-10-16T00:31:32;14.44;118.99
67358;HTU21D;54240;51.096;5.878;2022-10-16T00:33:58;14.40;118.99
67358;HTU21D;54240;51.096;5.878;2022-10-16T00:36:25;14.36;118.99
67358;HTU21D;54240;51.096;5.878;2022-10-16T00:38:53;14.29;118.99
67358;HTU21D;54240;51.096;5.878;2022-10-16T00:41:21;14.29;118.99
67358;HTU21D;54240;51.096;5.878;2022-10-16T00:46:25;14.25;118.99
67358;HTU21D;54240;51.096;5.878;2022-10-16T00:49:01;14.23;118.99
67358;HTU21D;54240;51.096;5.878;2022-10-16T00:51:40;14.19;118.99
67358;HTU21D;54240;51.096;5.878;2022-10-16T00:54:11;14.19;118.99
67358;HTU21D;54240;51.096;5.878;2022-10-16T00:56:37;14.19;118.99
67358;HTU21D;54240;51.096;5.878;2022-10-16T00:59:10;14.18;118.99
67358;HTU21D;54240;51.096;5.878;2022-10-16T01:01:38;14.14;118.99
67358;HTU21D;54240;51.096;5.878;2022-10-16T01:04:04;14.13;118.99
67358;HTU21D;54240;51.096;5.878;2022-10-16T01:10:09;14.05;118.99
67358;HTU21D;54240;51.096;5.878;2022-10-16T01:12:48;14.03;118.99
67358;HTU21D;54240;51.096;5.878;2022-10-16T01:18:46;13.94;118.99
67358;HTU21D;54240;51.096;5.878;2022-10-16T01:21:23;13.90;118.99
67358;HTU21D;54240;51.096;5.878;2022-10-16T01:31:56;13.68;118.99
67358;HTU21D;54240;51.096;5.878;2022-10-16T01:34:55;13.67;118.99
67358;HTU21D;54240;51.096;5.878;2022-10-16T01:37:36;13.60;118.99
67358;HTU21D;54240;51.096;5.878;2022-10-16T01:40:09;13.64;118.99
67358;HTU21D;54240;51.096;5.878;2022-10-16T01:42:48;13.59;118.99
67358;HTU21D;54240;51.096;5.878;2022-10-16T01:45:18;13.60;118.99
67358;HTU21D;54240;51.096;5.878;2022-10-16T01:47:46;13.59;118.99
67358;HTU21D;54240;51.096;5.878;2022-10-16T01:50:16;13.59;118.99
67358;HTU21D;54240;51.096;5.878;2022-10-16T01:52:47;13.55;118.99
67358;HTU21D;54240;51.096;5.878;2022-10-16T01:55:22;13.61;118.99
67358;HTU21D;54240;51.096;5.878;2022-10-16T01:57:51;13.59;118.99
67358;HTU21D;54240;51.096;5.878;2022-10-16T02:00:21;13.61;118.99
67358;HTU21D;54240;51.096;5.878;2022-10-16T02:02:52;13.61;118.99
67358;HTU21D;54240;51.096;5.878;2022-10-16T02:05:25;13.60;118.99
67358;HTU21D;54240;51.096;5.878;2022-10-16T02:07:51;13.64;118.99
67358;HTU21D;54240;51.096;5.878;2022-10-16T02:10:18;13.71;118.99
67358;HTU21D;54240;51.096;5.878;2022-10-16T02:13:14;13.76;118.99
67358;HTU21D;54240;51.096;5.878;2022-10-16T02:15:42;13.75;118.99
67358;HTU21D;54240;51.096;5.878;2022-10-16T02:18:09;13.78;118.99
67358;HTU21D;54240;51.096;5.878;2022-10-16T02:21:00;13.84;118.99
67358;HTU21D;54240;51.096;5.878;2022-10-16T02:23:33;13.86;118.99
67358;HTU21D;54240;51.096;5.878;2022-10-16T02:26:04;13.90;118.99
67358;HTU21D;54240;51.096;5.878;2022-10-16T02:28:46;13.89;118.99
67358;HTU21D;54240;51.096;5.878;2022-10-16T02:31:20;13.96;118.99
67358;HTU21D;54240;51.096;5.878;2022-10-16T02:33:51;13.92;118.99
67358;HTU21D;54240;51.096;5.878;2022-10-16T02:36:18;13.89;118.99
67358;HTU21D;54240;51.096;5.878;2022-10-16T02:38:45;13.94;118.99
67358;HTU21D;54240;51.096;5.878;2022-10-16T02:41:12;13.96;118.99
67358;HTU21D;54240;51.096;5.878;2022-10-16T02:43:39;13.90;118.99
67358;HTU21D;54240;51.096;5.878;2022-10-16T02:46:05;13.94;118.99
67358;HTU21D;54240;51.096;5.878;2022-10-16T02:48:30;13.88;118.99
67358;HTU21D;54240;51.096;5.878;2022-10-16T02:50:56;13.97;118.99
67358;HTU21D;54240;51.096;5.878;2022-10-16T02:53:23;14.10;118.99
67358;HTU21D;54240;51.096;5.878;2022-10-16T02:55:48;14.12;118.99
67358;HTU21D;54240;51.096;5.878;2022-10-16T02:58:14;14.14;118.99
67358;HTU21D;54240;51.096;5.878;2022-10-16T03:00:40;14.17;118.99
67358;HTU21D;54240;51.096;5.878;2022-10-16T03:03:06;14.19;118.99
67358;HTU21D;54240;51.096;5.878;2022-10-16T03:05:32;14.14;118.99
67358;HTU21D;54240;51.096;5.878;2022-10-16T03:07:58;14.14;118.99
67358;HTU21D;54240;51.096;5.878;2022-10-16T03:10:26;14.15;118.99
67358;HTU21D;54240;51.096;5.878;2022-10-16T03:12:52;14.11;118.99
67358;HTU21D;54240;51.096;5.878;2022-10-16T03:15:18;14.12;118.99
67358;HTU21D;54240;51.096;5.878;2022-10-16T03:17:44;14.07;118.99
67358;HTU21D;54240;51.096;5.878;2022-10-16T03:20:10;13.97;118.99
67358;HTU21D;54240;51.096;5.878;2022-10-16T03:22:35;13.96;118.99
67358;HTU21D;54240;51.096;5.878;2022-10-16T03:25:01;13.92;118.99
67358;HTU21D;54240;51.096;5.878;2022-10-16T03:27:27;13.88;118.99
67358;HTU21D;54240;51.096;5.878;2022-10-16T03:29:53;13.79;118.99
67358;HTU21D;54240;51.096;5.878;2022-10-16T03:32:19;13.74;118.99
67358;HTU21D;54240;51.096;5.878;2022-10-16T03:34:45;13.71;118.99
67358;HTU21D;54240;51.096;5.878;2022-10-16T03:37:11;13.66;118.99
67358;HTU21D;54240;51.096;5.878;2022-10-16T03:39:37;13.65;118.99
67358;HTU21D;54240;51.096;5.878;2022-10-16T03:42:03;13.62;118.99
67358;HTU21D;54240;51.096;5.878;2022-10-16T03:44:28;13.59;118.99
67358;HTU21D;54240;51.096;5.878;2022-10-16T03:46:54;13.56;118.99
67358;HTU21D;54240;51.096;5.878;2022-10-16T03:49:20;13.52;118.99
67358;HTU21D;54240;51.096;5.878;2022-10-16T03:51:46;13.53;118.99
67358;HTU21D;54240;51.096;5.878;2022-10-16T03:54:11;13.49;118.99
67358;HTU21D;54240;51.096;5.878;2022-10-16T03:56:38;13.44;118.99
67358;HTU21D;54240;51.096;5.878;2022-10-16T03:59:03;13.43;118.99
67358;HTU21D;54240;51.096;5.878;2022-10-16T04:01:29;13.37;118.99
67358;HTU21D;54240;51.096;5.878;2022-10-16T04:03:55;13.34;118.99
67358;HTU21D;54240;51.096;5.878;2022-10-16T04:06:21;13.33;118.99
67358;HTU21D;54240;51.096;5.878;2022-10-16T04:08:46;13.33;118.99
67358;HTU21D;54240;51.096;5.878;2022-10-16T04:11:12;13.30;118.99
67358;HTU21D;54240;51.096;5.878;2022-10-16T04:13:38;13.29;118.99
67358;HTU21D;54240;51.096;5.878;2022-10-16T04:16:04;13.24;118.99
67358;HTU21D;54240;51.096;5.878;2022-10-16T04:18:30;13.23;118.99
67358;HTU21D;54240;51.096;5.878;2022-10-16T04:20:55;13.24;118.99
67358;HTU21D;54240;51.096;5.878;2022-10-16T04:23:21;13.22;118.99
67358;HTU21D;54240;51.096;5.878;2022-10-16T04:25:48;13.29;118.99
67358;HTU21D;54240;51.096;5.878;2022-10-16T04:28:14;13.31;118.99
67358;HTU21D;54240;51.096;5.878;2022-10-16T04:30:40;13.32;118.99
67358;HTU21D;54240;51.096;5.878;2022-10-16T04:33:07;13.34;118.99
67358;HTU21D;54240;51.096;5.878;2022-10-16T04:35:33;13.34;118.99
67358;HTU21D;54240;51.096;5.878;2022-10-16T04:37:59;13.39;118.99
67358;HTU21D;54240;51.096;5.878;2022-10-16T04:40:25;13.32;118.99
67358;HTU21D;54240;51.096;5.878;2022-10-16T04:42:50;13.39;118.99
67358;HTU21D;54240;51.096;5.878;2022-10-16T04:45:16;13.43;118.99
67358;HTU21D;54240;51.096;5.878;2022-10-16T04:47:42;13.48;118.99
67358;HTU21D;54240;51.096;5.878;2022-10-16T04:50:08;13.44;118.99
67358;HTU21D;54240;51.096;5.878;2022-10-16T04:52:34;13.48;118.99
67358;HTU21D;54240;51.096;5.878;2022-10-16T04:54:59;13.50;118.99
67358;HTU21D;54240;51.096;5.878;2022-10-16T04:57:29;13.52;118.99
67358;HTU21D;54240;51.096;5.878;2022-10-16T04:59:56;13.54;118.99
67358;HTU21D;54240;51.096;5.878;2022-10-16T05:02:21;13.55;118.99
67358;HTU21D;54240;51.096;5.878;2022-10-16T05:04:47;13.52;118.99
67358;HTU21D;54240;51.096;5.878;2022-10-16T05:07:13;13.53;118.99
67358;HTU21D;54240;51.096;5.878;2022-10-16T05:09:39;13.49;118.99
67358;HTU21D;54240;51.096;5.878;2022-10-16T05:12:04;13.50;118.99
67358;HTU21D;54240;51.096;5.878;2022-10-16T05:14:30;13.49;118.99
67358;HTU21D;54240;51.096;5.878;2022-10-16T05:16:56;13.50;118.99
67358;HTU21D;54240;51.096;5.878;2022-10-16T05:19:22;13.49;118.99
67358;HTU21D;54240;51.096;5.878;2022-10-16T05:21:48;13.46;118.99
67358;HTU21D;54240;51.096;5.878;2022-10-16T05:24:14;13.44;118.99
67358;HTU21D;54240;51.096;5.878;2022-10-16T05:26:40;13.41;118.99
67358;HTU21D;54240;51.096;5.878;2022-10-16T05:29:05;13.38;118.99
67358;HTU21D;54240;51.096;5.878;2022-10-16T05:31:31;13.34;118.99
67358;HTU21D;54240;51.096;5.878;2022-10-16T05:34:01;13.30;118.99
67358;HTU21D;54240;51.096;5.878;2022-10-16T05:36:27;13.31;118.99
67358;HTU21D;54240;51.096;5.878;2022-10-16T05:38:53;13.27;118.99
67358;HTU21D;54240;51.096;5.878;2022-10-16T05:41:19;13.35;118.99
67358;HTU21D;54240;51.096;5.878;2022-10-16T05:43:48;13.31;118.99
67358;HTU21D;54240;51.096;5.878;2022-10-16T05:46:14;13.25;118.99
67358;HTU21D;54240;51.096;5.878;2022-10-16T05:48:40;13.31;118.99
67358;HTU21D;54240;51.096;5.878;2022-10-16T05:51:08;13.32;118.99
67358;HTU21D;54240;51.096;5.878;2022-10-16T05:53:36;13.33;118.99
67358;HTU21D;54240;51.096;5.878;2022-10-16T05:56:03;13.43;118.99
67358;HTU21D;54240;51.096;5.878;2022-10-16T05:58:34;13.27;118.99
67358;HTU21D;54240;51.096;5.878;2022-10-16T06:01:23;13.38;118.99
67358;HTU21D;54240;51.096;5.878;2022-10-16T06:03:53;13.47;118.99
67358;HTU21D;54240;51.096;5.878;2022-10-16T06:06:21;13.43;118.99
67358;HTU21D;54240;51.096;5.878;2022-10-16T06:08:48;13.44;118.99
67358;HTU21D;54240;51.096;5.878;2022-10-16T06:11:17;13.44;118.99
67358;HTU21D;54240;51.096;5.878;2022-10-16T06:13:43;13.49;118.99
67358;HTU21D;54240;51.096;5.878;2022-10-16T06:16:12;13.51;118.99
67358;HTU21D;54240;51.096;5.878;2022-10-16T06:18:38;13.47;118.99
67358;HTU21D;54240;51.096;5.878;2022-10-16T06:21:10;13.49;118.99
67358;HTU21D;54240;51.096;5.878;2022-10-16T06:23:37;13.45;118.99
67358;HTU21D;54240;51.096;5.878;2022-10-16T06:26:12;13.41;118.99
67358;HTU21D;54240;51.096;5.878;2022-10-16T06:28:39;13.39;118.99
67358;HTU21D;54240;51.096;5.878;2022-10-16T06:31:06;13.36;118.99
67358;HTU21D;54240;51.096;5.878;2022-10-16T06:33:32;13.35;118.99
67358;HTU21D;54240;51.096;5.878;2022-10-16T06:38:31;13.34;118.99
67358;HTU21D;54240;51.096;5.878;2022-10-16T06:40:58;13.37;118.99
67358;HTU21D;54240;51.096;5.878;2022-10-16T06:43:25;13.34;118.99
67358;HTU21D;54240;51.096;5.878;2022-10-16T06:45:55;13.31;118.99
67358;HTU21D;54240;51.096;5.878;2022-10-16T06:48:21;13.35;118.99
67358;HTU21D;54240;51.096;5.878;2022-10-16T06:53:27;13.31;118.99
67358;HTU21D;54240;51.096;5.878;2022-10-16T06:55:54;13.33;118.99
67358;HTU21D;54240;51.096;5.878;2022-10-16T06:58:20;13.36;118.99
67358;HTU21D;54240;51.096;5.878;2022-10-16T07:00:46;13.32;118.99
67358;HTU21D;54240;51.096;5.878;2022-10-16T07:03:12;13.37;118.99
67358;HTU21D;54240;51.096;5.878;2022-10-16T07:05:40;13.41;118.99
67358;HTU21D;54240;51.096;5.878;2022-10-16T07:08:06;13.50;118.99
67358;HTU21D;54240;51.096;5.878;2022-10-16T07:10:33;13.55;118.99
67358;HTU21D;54240;51.096;5.878;2022-10-16T07:13:00;13.85;118.99
67358;HTU21D;54240;51.096;5.878;2022-10-16T07:15:26;14.23;118.99
67358;HTU21D;54240;51.096;5.878;2022-10-16T07:17:53;14.50;118.99
67358;HTU21D;54240;51.096;5.878;2022-10-16T07:20:19;14.81;118.99
67358;HTU21D;54240;51.096;5.878;2022-10-16T07:22:45;15.01;118.99
67358;HTU21D;54240;51.096;5.878;2022-10-16T07:25:11;15.33;118.99
67358;HTU21D;54240;51.096;5.878;2022-10-16T07:27:37;15.66;118.99
67358;HTU21D;54240;51.096;5.878;2022-10-16T07:30:04;15.87;118.99
67358;HTU21D;54240;51.096;5.878;2022-10-16T07:32:31;16.16;118.99
67358;HTU21D;54240;51.096;5.878;2022-10-16T07:34:58;16.31;118.99
67358;HTU21D;54240;51.096;5.878;2022-10-16T07:37:23;16.43;118.99
67358;HTU21D;54240;51.096;5.878;2022-10-16T07:39:49;16.63;118.99
67358;HTU21D;54240;51.096;5.878;2022-10-16T07:42:15;16.90;118.99
67358;HTU21D;54240;51.096;5.878;2022-10-16T07:44:41;17.02;118.99
67358;HTU21D;54240;51.096;5.878;2022-10-16T07:47:07;17.06;118.99
67358;HTU21D;54240;51.096;5.878;2022-10-16T07:49:33;17.16;118.99
67358;HTU21D;54240;51.096;5.878;2022-10-16T07:51:58;17.24;118.99
67358;HTU21D;54240;51.096;5.878;2022-10-16T07:54:24;17.36;118.99
67358;HTU21D;54240;51.096;5.878;2022-10-16T07:56:50;17.50;118.99
67358;HTU21D;54240;51.096;5.878;2022-10-16T07:59:16;17.59;118.99
67358;HTU21D;54240;51.096;5.878;2022-10-16T08:01:42;17.63;118.99
67358;HTU21D;54240;51.096;5.878;2022-10-16T08:04:09;17.72;118.99
67358;HTU21D;54240;51.096;5.878;2022-10-16T08:06:37;17.89;118.99
67358;HTU21D;54240;51.096;5.878;2022-10-16T08:09:04;17.70;118.99
67358;HTU21D;54240;51.096;5.878;2022-10-16T08:11:30;17.73;118.99
67358;HTU21D;54240;51.096;5.878;2022-10-16T08:13:56;17.62;118.99
67358;HTU21D;54240;51.096;5.878;2022-10-16T08:16:21;17.73;118.99
67358;HTU21D;54240;51.096;5.878;2022-10-16T08:18:47;18.00;118.99
67358;HTU21D;54240;51.096;5.878;2022-10-16T08:21:16;17.99;118.99
67358;HTU21D;54240;51.096;5.878;2022-10-16T08:23:42;18.02;118.99
67358;HTU21D;54240;51.096;5.878;2022-10-16T08:26:08;18.28;118.99
67358;HTU21D;54240;51.096;5.878;2022-10-16T08:28:35;18.47;118.99
67358;HTU21D;54240;51.096;5.878;2022-10-16T08:31:10;18.50;118.99
67358;HTU21D;54240;51.096;5.878;2022-10-16T08:33:37;19.15;118.99
67358;HTU21D;54240;51.096;5.878;2022-10-16T08:36:05;19.41;118.99
67358;HTU21D;54240;51.096;5.878;2022-10-16T08:38:32;19.50;118.99
67358;HTU21D;54240;51.096;5.878;2022-10-16T08:49:27;19.80;118.99
67358;HTU21D;54240;51.096;5.878;2022-10-16T08:51:53;19.71;118.99
67358;HTU21D;54240;51.096;5.878;2022-10-16T08:54:37;19.83;118.99
67358;HTU21D;54240;51.096;5.878;2022-10-16T08:57:14;19.83;118.99
67358;HTU21D;54240;51.096;5.878;2022-10-16T08:59:41;20.10;118.99
67358;HTU21D;54240;51.096;5.878;2022-10-16T09:10:59;20.77;118.99
67358;HTU21D;54240;51.096;5.878;2022-10-16T09:14:07;20.31;118.99
67358;HTU21D;54240;51.096;5.878;2022-10-16T09:16:51;20.47;118.99
67358;HTU21D;54240;51.096;5.878;2022-10-16T09:19:39;20.91;118.99
67358;HTU21D;54240;51.096;5.878;2022-10-16T09:22:16;20.90;118.99
67358;HTU21D;54240;51.096;5.878;2022-10-16T09:24:42;21.09;118.99
67358;HTU21D;54240;51.096;5.878;2022-10-16T09:27:12;21.49;118.99
67358;HTU21D;54240;51.096;5.878;2022-10-16T09:29:39;21.64;118.99
67358;HTU21D;54240;51.096;5.878;2022-10-16T09:32:16;21.34;118.99
67358;HTU21D;54240;51.096;5.878;2022-10-16T09:34:50;21.36;118.99
67358;HTU21D;54240;51.096;5.878;2022-10-16T09:37:20;21.73;118.99
67358;HTU21D;54240;51.096;5.878;2022-10-16T09:39:49;21.72;111.61
67358;HTU21D;54240;51.096;5.878;2022-10-16T09:42:30;21.68;98.63
67358;HTU21D;54240;51.096;5.878;2022-10-16T09:44:57;21.37;118.99
67358;HTU21D;54240;51.096;5.878;2022-10-16T09:47:26;21.37;118.99
67358;HTU21D;54240;51.096;5.878;2022-10-16T09:49:56;21.67;118.99
67358;HTU21D;54240;51.096;5.878;2022-10-16T09:52:23;21.47;113.79
67358;HTU21D;54240;51.096;5.878;2022-10-16T09:55:12;21.96;107.64
67358;HTU21D;54240;51.096;5.878;2022-10-16T09:57:53;21.93;87.48
67358;HTU21D;54240;51.096;5.878;2022-10-16T10:00:21;21.84;73.61
67358;HTU21D;54240;51.096;5.878;2022-10-16T10:02:48;21.34;85.08
67358;HTU21D;54240;51.096;5.878;2022-10-16T10:05:24;21.73;83.30
67358;HTU21D;54240;51.096;5.878;2022-10-16T10:07:56;21.79;74.83
67358;HTU21D;54240;51.096;5.878;2022-10-16T10:10:28;21.57;59.83
67358;HTU21D;54240;51.096;5.878;2022-10-16T10:12:55;21.66;76.89
67358;HTU21D;54240;51.096;5.878;2022-10-16T10:15:23;21.83;64.83
67358;HTU21D;54240;51.096;5.878;2022-10-16T10:17:57;21.73;75.45
67358;HTU21D;54240;51.096;5.878;2022-10-16T10:20:30;21.94;58.90
67358;HTU21D;54240;51.096;5.878;2022-10-16T10:22:58;22.39;53.84
67358;HTU21D;54240;51.096;5.878;2022-10-16T10:28:51;22.58;26.55
67358;HTU21D;54240;51.096;5.878;2022-10-16T10:31:38;22.54;24.30
67358;HTU21D;54240;51.096;5.878;2022-10-16T10:36:56;23.02;-6.00
67358;HTU21D;54240;51.096;5.878;2022-10-16T10:40:03;22.81;-6.00
67358;HTU21D;54240;51.096;5.878;2022-10-16T10:45:27;22.76;-6.00
67358;HTU21D;54240;51.096;5.878;2022-10-16T10:50:57;23.13;-6.00
67358;HTU21D;54240;51.096;5.878;2022-10-16T10:56:44;23.23;-6.00
67358;HTU21D;54240;51.096;5.878;2022-10-16T10:59:32;22.73;-6.00
67358;HTU21D;54240;51.096;5.878;2022-10-16T11:05:03;22.26;-6.00
67358;HTU21D;54240;51.096;5.878;2022-10-16T11:07:45;21.61;-6.00
67358;HTU21D;54240;51.096;5.878;2022-10-16T11:10:40;21.24;4.47
67358;HTU21D;54240;51.096;5.878;2022-10-16T11:15:58;22.38;-2.19
67358;HTU21D;54240;51.096;5.878;2022-10-16T11:18:33;22.91;-6.00
67358;HTU21D;54240;51.096;5.878;2022-10-16T11:21:08;22.51;-6.00
67358;HTU21D;54240;51.096;5.878;2022-10-16T11:23:47;22.23;-6.00
67358;HTU21D;54240;51.096;5.878;2022-10-16T11:26:33;22.67;-6.00
67358;HTU21D;54240;51.096;5.878;2022-10-16T11:29:02;22.42;-6.00
67358;HTU21D;54240;51.096;5.878;2022-10-16T11:31:40;22.06;-6.00
67358;HTU21D;54240;51.096;5.878;2022-10-16T11:34:37;21.25;13.10
67358;HTU21D;54240;51.096;5.878;2022-10-16T11:37:20;21.70;4.93
67358;HTU21D;54240;51.096;5.878;2022-10-16T11:39:50;23.16;-6.00
67358;HTU21D;54240;51.096;5.878;2022-10-16T11:42:30;24.11;-6.00
67358;HTU21D;54240;51.096;5.878;2022-10-16T11:45:17;24.71;-6.00
67358;HTU21D;54240;51.096;5.878;2022-10-16T11:47:57;24.88;-6.00
67358;HTU21D;54240;51.096;5.878;2022-10-16T11:53:16;24.14;-6.00
67358;HTU21D;54240;51.096;5.878;2022-10-16T11:55:47;23.62;-6.00
67358;HTU21D;54240;51.096;5.878;2022-10-16T11:58:31;23.13;-6.00
67358;HTU21D;54240;51.096;5.878;2022-10-16T12:01:15;22.87;-6.00
67358;HTU21D;54240;51.096;5.878;2022-10-16T12:06:35;22.38;-6.00
67358;HTU21D;54240;51.096;5.878;2022-10-16T12:09:03;22.08;-6.00
67358;HTU21D;54240;51.096;5.878;2022-10-16T12:11:34;21.92;-6.00
67358;HTU21D;54240;51.096;5.878;2022-10-16T12:17:25;22.49;-6.00
67358;HTU21D;54240;51.096;5.878;2022-10-16T12:20:26;22.91;-6.00
67358;HTU21D;54240;51.096;5.878;2022-10-16T12:23:05;22.93;-6.00
67358;HTU21D;54240;51.096;5.878;2022-10-16T12:25:31;22.69;-6.00
67358;HTU21D;54240;51.096;5.878;2022-10-16T12:28:20;22.13;-6.00
67358;HTU21D;54240;51.096;5.878;2022-10-16T12:30:59;22.01;-6.00
67358;HTU21D;54240;51.096;5.878;2022-10-16T12:33:30;22.08;-6.00
67358;HTU21D;54240;51.096;5.878;2022-10-16T12:36:00;22.12;-6.00
67358;HTU21D;54240;51.096;5.878;2022-10-16T12:38:37;22.02;-6.00
67358;HTU21D;54240;51.096;5.878;2022-10-16T12:41:07;21.92;-6.00
67358;HTU21D;54240;51.096;5.878;2022-10-16T12:43:41;21.85;-6.00
67358;HTU21D;54240;51.096;5.878;2022-10-16T12:48:34;21.64;-6.00
67358;HTU21D;54240;51.096;5.878;2022-10-16T13:10:28;22.32;-6.00
67358;HTU21D;54240;51.096;5.878;2022-10-16T13:13:18;22.10;-6.00
67358;HTU21D;54240;51.096;5.878;2022-10-16T13:21:45;22.16;-6.00
67358;HTU21D;54240;51.096;5.878;2022-10-16T13:24:47;22.03;-6.00
67358;HTU21D;54240;51.096;5.878;2022-10-16T13:30:09;21.99;-6.00
67358;HTU21D;54240;51.096;5.878;2022-10-16T13:32:36;21.90;-6.00
67358;HTU21D;54240;51.096;5.878;2022-10-16T13:35:02;21.76;-6.00
67358;HTU21D;54240;51.096;5.878;2022-10-16T13:37:32;21.69;-6.00
67358;HTU21D;54240;51.096;5.878;2022-10-16T13:40:23;21.65;-6.00
67358;HTU21D;54240;51.096;5.878;2022-10-16T13:42:50;21.69;-6.00
67358;HTU21D;54240;51.096;5.878;2022-10-16T13:45:24;21.66;-6.00
67358;HTU21D;54240;51.096;5.878;2022-10-16T13:48:01;21.48;-6.00
67358;HTU21D;54240;51.096;5.878;2022-10-16T13:50:27;21.38;-6.00
67358;HTU21D;54240;51.096;5.878;2022-10-16T13:53:06;21.39;-6.00
67358;HTU21D;54240;51.096;5.878;2022-10-16T13:55:33;21.49;-6.00
67358;HTU21D;54240;51.096;5.878;2022-10-16T13:58:08;21.54;-6.00
67358;HTU21D;54240;51.096;5.878;2022-10-16T14:00:34;21.60;-6.00
67358;HTU21D;54240;51.096;5.878;2022-10-16T14:03:11;21.68;-6.00
67358;HTU21D;54240;51.096;5.878;2022-10-16T14:05:47;21.85;-6.00
67358;HTU21D;54240;51.096;5.878;2022-10-16T14:08:13;21.91;-6.00
67358;HTU21D;54240;51.096;5.878;2022-10-16T14:10:40;21.87;-6.00
67358;HTU21D;54240;51.096;5.878;2022-10-16T14:13:07;21.84;-6.00
67358;HTU21D;54240;51.096;5.878;2022-10-16T14:15:38;21.75;-6.00
67358;HTU21D;54240;51.096;5.878;2022-10-16T14:18:05;21.59;-6.00
67358;HTU21D;54240;51.096;5.878;2022-10-16T14:20:33;21.51;-4.31
67358;HTU21D;54240;51.096;5.878;2022-10-16T14:23:16;21.38;-5.11
67358;HTU21D;54240;51.096;5.878;2022-10-16T14:25:44;21.25;-5.20
67358;HTU21D;54240;51.096;5.878;2022-10-16T14:30:36;21.16;-2.28
67358;HTU21D;54240;51.096;5.878;2022-10-16T14:33:18;21.19;-3.43
67358;HTU21D;54240;51.096;5.878;2022-10-16T14:35:46;21.20;-6.00
67358;HTU21D;54240;51.096;5.878;2022-10-16T14:38:19;21.16;-1.09
67358;HTU21D;54240;51.096;5.878;2022-10-16T14:40:50;21.17;5.27
67358;HTU21D;54240;51.096;5.878;2022-10-16T14:43:22;21.18;3.56
67358;HTU21D;54240;51.096;5.878;2022-10-16T14:45:54;21.20;14.66
67358;HTU21D;54240;51.096;5.878;2022-10-16T14:48:21;21.21;13.97
67358;HTU21D;54240;51.096;5.878;2022-10-16T14:50:48;21.21;20.24
67358;HTU21D;54240;51.096;5.878;2022-10-16T14:53:14;21.15;25.98
67358;HTU21D;54240;51.096;5.878;2022-10-16T14:55:41;21.03;40.20
67358;HTU21D;54240;51.096;5.878;2022-10-16T15:00:41;20.70;54.04
67358;HTU21D;54240;51.096;5.878;2022-10-16T15:03:07;20.47;57.97
67358;HTU21D;54240;51.096;5.878;2022-10-16T15:05:33;20.32;63.56
67358;HTU21D;54240;51.096;5.878;2022-10-16T15:07:59;20.17;70.68
67358;HTU21D;54240;51.096;5.878;2022-10-16T15:10:27;20.06;76.62
67358;HTU21D;54240;51.096;5.878;2022-10-16T15:12:54;20.02;78.61
67358;HTU21D;54240;51.096;5.878;2022-10-16T15:17:53;19.99;90.01
67358;HTU21D;54240;51.096;5.878;2022-10-16T15:20:23;19.97;92.63
67358;HTU21D;54240;51.096;5.878;2022-10-16T15:22:49;19.92;98.68
67358;HTU21D;54240;51.096;5.878;2022-10-16T15:25:31;19.88;111.62
67358;HTU21D;54240;51.096;5.878;2022-10-16T15:28:03;19.84;118.81
67358;HTU21D;54240;51.096;5.878;2022-10-16T15:30:29;19.79;118.99
67358;HTU21D;54240;51.096;5.878;2022-10-16T15:32:55;19.74;118.99
67358;HTU21D;54240;51.096;5.878;2022-10-16T15:35:21;19.69;118.99
67358;HTU21D;54240;51.096;5.878;2022-10-16T15:37:48;19.63;118.99
67358;HTU21D;54240;51.096;5.878;2022-10-16T15:40:14;19.56;118.99
67358;HTU21D;54240;51.096;5.878;2022-10-16T15:42:40;19.53;118.99
67358;HTU21D;54240;51.096;5.878;2022-10-16T15:45:08;19.50;118.99
67358;HTU21D;54240;51.096;5.878;2022-10-16T15:47:35;19.46;118.99
67358;HTU21D;54240;51.096;5.878;2022-10-16T15:50:00;19.37;118.99
67358;HTU21D;54240;51.096;5.878;2022-10-16T15:52:26;19.31;118.99
67358;HTU21D;54240;51.096;5.878;2022-10-16T15:54:54;19.27;118.99
67358;HTU21D;54240;51.096;5.878;2022-10-16T15:57:20;19.27;118.99
67358;HTU21D;54240;51.096;5.878;2022-10-16T15:59:46;19.24;118.99
67358;HTU21D;54240;51.096;5.878;2022-10-16T16:02:12;19.14;118.99
67358;HTU21D;54240;51.096;5.878;2022-10-16T16:04:38;19.07;118.99
67358;HTU21D;54240;51.096;5.878;2022-10-16T16:07:04;19.00;118.99
67358;HTU21D;54240;51.096;5.878;2022-10-16T16:09:33;18.94;118.99
67358;HTU21D;54240;51.096;5.878;2022-10-16T16:11:59;18.88;118.99
67358;HTU21D;54240;51.096;5.878;2022-10-16T16:14:27;18.81;118.99
67358;HTU21D;54240;51.096;5.878;2022-10-16T16:16:54;18.76;118.99
67358;HTU21D;54240;51.096;5.878;2022-10-16T16:19:21;18.68;118.99
67358;HTU21D;54240;51.096;5.878;2022-10-16T16:21:48;18.64;118.99
67358;HTU21D;54240;51.096;5.878;2022-10-16T16:24:14;18.62;118.99
67358;HTU21D;54240;51.096;5.878;2022-10-16T16:26:40;18.62;118.99
67358;HTU21D;54240;51.096;5.878;2022-10-16T16:29:14;18.62;118.99
67358;HTU21D;54240;51.096;5.878;2022-10-16T16:31:41;18.66;118.99
67358;HTU21D;54240;51.096;5.878;2022-10-16T16:34:08;18.67;118.99
67358;HTU21D;54240;51.096;5.878;2022-10-16T16:36:35;18.67;118.99
67358;HTU21D;54240;51.096;5.878;2022-10-16T16:39:02;18.66;118.99
67358;HTU21D;54240;51.096;5.878;2022-10-16T16:41:29;18.62;118.99
67358;HTU21D;54240;51.096;5.878;2022-10-16T16:44:04;18.58;118.99
67358;HTU21D;54240;51.096;5.878;2022-10-16T16:46:31;18.54;118.99
67358;HTU21D;54240;51.096;5.878;2022-10-16T16:48:58;18.48;118.99
67358;HTU21D;54240;51.096;5.878;2022-10-16T16:51:24;18.43;118.99
67358;HTU21D;54240;51.096;5.878;2022-10-16T16:53:52;18.38;118.99
67358;HTU21D;54240;51.096;5.878;2022-10-16T16:56:20;18.33;118.99
67358;HTU21D;54240;51.096;5.878;2022-10-16T16:58:49;18.28;118.99
67358;HTU21D;54240;51.096;5.878;2022-10-16T17:01:16;18.22;118.99
67358;HTU21D;54240;51.096;5.878;2022-10-16T17:03:43;18.20;118.99
67358;HTU21D;54240;51.096;5.878;2022-10-16T17:06:13;18.19;118.99
67358;HTU21D;54240;51.096;5.878;2022-10-16T17:08:40;18.18;118.99
67358;HTU21D;54240;51.096;5.878;2022-10-16T17:11:15;18.15;118.99